createdAt,value
2019-05-20T00:00:02.423Z,72.92
2019-05-20T00:02:35.081Z,73.61
2019-05-20T00:05:08.529Z,73.92
2019-05-20T00:07:40.256Z,74.12
2019-05-20T00:10:14.891Z,74.06
2019-05-20T00:12:46.923Z,74.03
2019-05-20T00:15:19.877Z,73.84
2019-05-20T00:17:52.516Z,74.01
2019-05-20T00:20:25.303Z,74.10
2019-05-20T00:22:57.369Z,73.77
2019-05-20T00:25:29.708Z,73.91
2019-05-20T00:28:02.555Z,73.82
2019-05-20T00:30:35.446Z,73.69
2019-05-20T00:33:08.025Z,73.38
2019-05-20T00:35:42.670Z,73.47
2019-05-20T00:38:14.608Z,73.43
2019-05-20T00:40:47.598Z,73.29
2019-05-20T00:43:25.211Z,73.31
2019-05-20T00:45:58.614Z,74.13
2019-05-20T00:48:31.703Z,74.63
2019-05-20T00:51:04.365Z,74.32
2019-05-20T00:53:40.494Z,74.86
2019-05-20T00:56:15.180Z,74.27
2019-05-20T00:58:48.849Z,74.68
2019-05-20T01:01:21.351Z,73.77
2019-05-20T01:03:53.893Z,73.62
2019-05-20T01:06:25.965Z,73.86
2019-05-20T01:08:58.905Z,73.36
2019-05-20T01:11:34.962Z,72.92
2019-05-20T01:14:08.388Z,72.64
2019-05-20T01:16:40.969Z,72.53
2019-05-20T01:19:14.096Z,72.56
2019-05-20T01:21:49.560Z,72.08
2019-05-20T01:24:26.221Z,71.87
2019-05-20T01:26:58.491Z,69.97
2019-05-20T01:29:31.172Z,70.06
2019-05-20T01:32:05.293Z,70.00
2019-05-20T01:34:41.085Z,69.59
2019-05-20T01:37:16.174Z,69.65
2019-05-20T01:39:48.661Z,69.48
2019-05-20T01:42:22.440Z,69.92
2019-05-20T01:44:54.943Z,70.06
2019-05-20T01:47:27.537Z,71.28
2019-05-20T01:50:00.173Z,70.41
2019-05-20T01:52:34.014Z,69.38
2019-05-20T01:55:09.053Z,69.26
2019-05-20T01:57:41.716Z,68.93
2019-05-20T02:00:14.655Z,69.46
2019-05-20T02:02:47.050Z,70.70
2019-05-20T02:05:18.807Z,71.26
2019-05-20T02:07:51.051Z,70.17
2019-05-20T02:10:23.497Z,71.46
2019-05-20T02:12:55.986Z,71.05
2019-05-20T02:15:30.556Z,70.54
2019-05-20T02:18:03.131Z,69.25
2019-05-20T02:20:35.928Z,67.77
2019-05-20T02:23:09.954Z,68.54
2019-05-20T02:25:46.570Z,66.14
2019-05-20T02:28:17.149Z,66.62
2019-05-20T02:30:49.413Z,64.74
2019-05-20T02:33:21.642Z,64.39
2019-05-20T02:35:54.592Z,62.76
2019-05-20T02:38:27.354Z,63.18
2019-05-20T02:40:59.544Z,63.85
2019-05-20T02:43:31.635Z,64.46
2019-05-20T02:46:04.236Z,63.53
2019-05-20T02:48:37.678Z,63.22
2019-05-20T02:51:09.702Z,63.36
2019-05-20T02:53:42.588Z,62.94
2019-05-20T02:56:18.834Z,63.10
2019-05-20T02:58:51.756Z,62.63
2019-05-20T03:01:23.824Z,62.49
2019-05-20T03:04:10.609Z,62.05
2019-05-20T03:06:33.045Z,62.09
2019-05-20T14:45:57.168Z,72.24
2019-05-20T14:48:29.855Z,71.72
2019-05-20T14:51:03.347Z,71.83
2019-05-20T14:53:48.054Z,72.35
2019-05-20T14:56:27.966Z,71.85
2019-05-20T14:59:07.037Z,72.31
2019-05-20T15:01:47.318Z,71.89
2019-05-20T15:04:20.735Z,71.82
2019-05-20T15:06:52.900Z,71.56
2019-05-20T15:09:25.188Z,71.09
2019-05-20T15:11:57.043Z,70.86
2019-05-20T15:14:33.835Z,70.91
2019-05-20T15:17:14.796Z,70.73
2019-05-20T15:19:55.293Z,70.58
2019-05-20T15:22:33.938Z,70.58
2019-05-20T15:25:13.709Z,70.56
2019-05-20T15:27:49.587Z,70.03
2019-05-20T15:30:21.507Z,70.32
2019-05-20T15:32:55.038Z,70.63
2019-05-20T15:35:28.258Z,69.91
2019-05-20T15:38:01.476Z,70.64
2019-05-20T15:40:33.676Z,70.43
2019-05-20T15:43:07.326Z,70.65
2019-05-20T15:45:47.055Z,70.62
2019-05-20T15:48:25.002Z,71.21
2019-05-20T15:50:57.032Z,70.60
2019-05-20T15:53:30.232Z,71.34
2019-05-20T15:56:03.669Z,71.45
2019-05-20T15:58:36.291Z,71.44
2019-05-20T16:01:09.386Z,72.40
2019-05-20T16:03:41.788Z,72.60
2019-05-20T16:06:15.331Z,72.67
2019-05-20T16:08:48.062Z,72.41
2019-05-20T16:11:20.705Z,73.03
2019-05-20T16:14:00.800Z,72.46
2019-05-20T16:16:33.570Z,73.28
2019-05-20T16:19:06.540Z,73.85
2019-05-20T16:21:47.847Z,73.70
2019-05-20T16:24:28.803Z,72.71
2019-05-20T16:27:02.131Z,72.68
2019-05-20T16:29:35.081Z,73.77
2019-05-20T16:32:08.101Z,73.06
2019-05-20T16:34:41.750Z,73.38
2019-05-20T16:37:15.099Z,72.86
2019-05-20T16:39:48.395Z,73.31
2019-05-20T16:42:21.720Z,73.56
2019-05-20T16:44:54.137Z,73.84
2019-05-20T16:47:27.205Z,73.14
2019-05-20T16:50:00.081Z,73.64
2019-05-20T16:52:38.514Z,73.95
2019-05-20T16:55:19.919Z,74.48
2019-05-20T16:57:52.087Z,74.26
2019-05-20T17:00:32.011Z,74.52
2019-05-20T17:03:02.369Z,73.70
2019-05-20T17:05:47.873Z,74.13
2019-05-20T17:08:26.929Z,73.71
2019-05-20T17:11:00.035Z,74.58
2019-05-20T17:13:32.807Z,73.81
2019-05-20T17:16:14.096Z,73.08
2019-05-20T17:18:49.838Z,72.98
2019-05-20T17:21:23.216Z,72.97
2019-05-20T17:23:55.924Z,72.50
2019-05-20T17:26:31.029Z,72.40
2019-05-20T17:29:06.214Z,73.43
2019-05-20T17:31:45.842Z,73.71
2019-05-20T17:34:19.341Z,73.26
2019-05-20T17:36:52.405Z,72.80
2019-05-20T17:39:25.413Z,73.25
2019-05-20T17:41:58.136Z,73.68
2019-05-20T17:44:31.034Z,73.22
2019-05-20T17:47:05.725Z,73.34
2019-05-20T17:49:45.858Z,74.57
2019-05-20T17:52:24.791Z,73.47
2019-05-20T17:54:57.150Z,73.27
2019-05-20T17:57:38.197Z,73.90
2019-05-20T18:00:13.915Z,73.86
2019-05-20T18:02:46.914Z,74.13
2019-05-20T18:05:20.243Z,72.42
2019-05-20T18:07:53.694Z,74.66
2019-05-20T18:10:27.006Z,73.76
2019-05-20T18:13:01.596Z,74.59
2019-05-20T18:15:37.930Z,74.72
2019-05-20T18:18:11.206Z,75.07
2019-05-20T18:20:46.179Z,75.19
2019-05-20T18:23:24.803Z,73.72
2019-05-20T18:25:57.484Z,74.27
2019-05-20T18:28:35.094Z,73.86
2019-05-20T18:31:07.828Z,73.70
2019-05-20T18:33:40.356Z,73.14
2019-05-20T18:36:12.734Z,72.85
2019-05-20T18:38:44.964Z,72.14
2019-05-20T18:41:17.572Z,71.34
2019-05-20T18:43:51.331Z,72.51
2019-05-20T18:46:24.255Z,72.95
2019-05-20T18:48:57.461Z,72.50
2019-05-20T18:51:31.149Z,72.71
2019-05-20T18:54:14.923Z,71.33
2019-05-20T18:56:47.772Z,71.63
2019-05-20T18:59:20.661Z,72.12
2019-05-20T19:02:04.947Z,71.26
2019-05-20T19:04:30.619Z,70.76
2019-05-20T19:07:02.986Z,70.01
2019-05-20T19:09:43.015Z,69.59
2019-05-20T19:12:17.121Z,70.01
2019-05-20T19:14:50.279Z,70.09
2019-05-20T19:17:23.018Z,70.14
2019-05-20T19:20:02.654Z,69.70
2019-05-20T19:22:43.066Z,68.37
2019-05-20T19:25:16.957Z,68.93
2019-05-20T19:27:49.573Z,69.35
2019-05-20T19:30:23.394Z,67.94
2019-05-20T19:32:56.300Z,68.00
2019-05-20T19:35:29.450Z,68.01
2019-05-20T19:38:02.419Z,68.24
2019-05-20T19:40:41.245Z,67.72
2019-05-20T19:43:21.275Z,67.39
2019-05-20T19:45:54.776Z,67.22
2019-05-20T19:48:34.998Z,67.05
2019-05-20T19:51:07.663Z,68.15
2019-05-20T19:53:40.881Z,68.51
2019-05-20T19:56:13.762Z,68.97
2019-05-20T19:58:54.134Z,67.14
2019-05-20T20:01:26.929Z,67.88
2019-05-20T20:04:02.511Z,67.36
2019-05-20T20:06:35.235Z,69.01
2019-05-20T20:09:09.727Z,67.59
2019-05-20T20:11:42.957Z,67.12
2019-05-20T20:14:15.227Z,67.23
2019-05-20T20:16:47.429Z,67.72
2019-05-20T20:19:20.432Z,68.66
2019-05-20T20:21:59.771Z,69.01
2019-05-20T20:24:32.277Z,69.26
2019-05-20T20:27:04.940Z,67.18
2019-05-20T20:29:49.811Z,67.27
2019-05-20T20:32:36.673Z,68.18
2019-05-20T20:34:57.050Z,67.66
2019-05-20T20:37:36.750Z,67.88
2019-05-20T20:40:09.362Z,67.96
2019-05-20T20:42:42.384Z,68.55
2019-05-20T20:45:15.674Z,68.05
2019-05-20T20:47:48.797Z,68.00
2019-05-20T20:50:28.042Z,68.21
2019-05-20T20:53:01.080Z,70.43
2019-05-20T20:55:35.467Z,68.57
2019-05-20T20:58:08.295Z,68.12
2019-05-20T21:00:41.726Z,69.06
2019-05-20T21:03:21.795Z,68.54
2019-05-20T21:05:54.613Z,67.93
2019-05-20T21:08:29.000Z,68.36
2019-05-20T21:11:02.602Z,68.24
2019-05-20T21:13:37.326Z,68.46
2019-05-20T21:16:11.199Z,68.43
2019-05-20T21:18:44.387Z,69.42
2019-05-20T21:21:16.700Z,68.37
2019-05-20T21:23:49.596Z,71.57
2019-05-20T21:26:28.842Z,70.28
2019-05-20T21:29:01.845Z,70.43
2019-05-20T21:31:41.048Z,70.84
2019-05-20T21:34:21.709Z,71.76
2019-05-20T21:36:54.883Z,70.98
2019-05-20T21:39:27.588Z,71.58
2019-05-20T21:42:00.712Z,71.66
2019-05-20T21:44:33.860Z,71.83
2019-05-20T21:47:06.897Z,72.51
2019-05-20T21:49:45.818Z,72.00
2019-05-20T21:52:18.721Z,72.41
2019-05-20T21:54:57.895Z,71.91
2019-05-20T21:57:30.480Z,72.27
2019-05-20T22:00:02.974Z,72.84
2019-05-20T22:02:37.470Z,73.49
2019-05-20T22:05:11.092Z,73.44
2019-05-20T22:07:47.191Z,72.14
2019-05-20T22:10:20.238Z,72.69
2019-05-20T22:12:54.809Z,72.52
2019-05-20T22:18:25.670Z,72.55
2019-05-20T22:20:59.839Z,72.04
2019-05-20T22:23:33.782Z,72.07
2019-05-20T22:26:07.019Z,71.49
2019-05-20T22:28:40.079Z,72.31
2019-05-20T22:31:20.623Z,71.79
2019-05-20T22:34:00.872Z,72.70
2019-05-20T22:36:33.632Z,73.82
2019-05-20T22:39:08.536Z,72.69
2019-05-20T22:41:47.913Z,73.06
2019-05-20T22:44:20.870Z,73.53
